Timeline UpdatesTrip UpdatesNews PostsPvt PostsTravel TipsAdmin PostsConv PostsFollowed PostsChat RequestsBlog PostsPNR Posts

Disclaimer
Search
 
 
Fri Apr 25, 2014 12:12:35 ISTHomeTrainsΣChainsAtlasPNRForumGalleryNewsFAQTripsMembersLoginFeedback
No Recent News for this Train
Other Trains in the News **new
Latest...
.
Sun Nov 03, 2013 (10:46PM)
⇐ Return Journey: Train# 13352

13351/Dhanbad-Alappuzha(Alleppey) Express

Mar 11 2014 (6:25PM)
Change Departure Station:
Change Arrival Station:
Post a Train Travel TipPost a Train Travel Tip **new
Post a Comment/Question/Picture/VideoPost a Comment/Question/Picture/Video
Pantry/Catering
✓ Pantry Car Avbl
✓ Catering Avbl
Average
Loco/Rake Reversals
MAS/Chennai Central (12); SRR/Shoranur Junction (7); VSKP/Visakhapatnam Junction (8);
RSA - Rake Sharing
Rake/Coach Composition
DHN-ROU = A1-B1-PC-S8-S7-S6-S5-S4-S3-S2-S1-UR-SLR-LOCO =>>; TATA Slip Portion attached at ROU ; ROU-VSKP =SLR-UR-ST5-ST4-ST3-ST2-ST1-B2-A1-B1-PC-S8-S7-S6-S5-S4-S3-S2-S1-UR-SLR LOCO=>>; VSKP-MAS = LOCO- SLR-UR-ST5-ST4-ST3-ST2-ST1-B2-A1-B1-PC-S8-S7-S6-S5-S4-S3-S2-S1-UR-SLR; MAS-SRR = SLR-UR-ST5-ST4-ST3-ST2-ST1-B2-A1-B1-PC-S8-S7-S6-S5-S4-S3-S2-S1-UR-SLR LOCO=>>; SRR-ALLP = LOCO- SLR-UR-ST5-ST4-ST3-ST2-ST1-B2-A1-B1-PC-S8-S7-S6-S5-S4-S3-S2-S1-UR-SLR ✫✫✫kodai king Maker✫✫✫* Entry# 905035
Loco
Official Loco DHN - ROU :- WAM-4 ROU - VSKP :- WDM-3A/WDG-3A...
Read more...
(Twins) VSKP - MAS :- WAM-4/WAP-1 MAS - ALLP:- WAM-4/WAP-4
News    PNR    Forum    Time-Table    Availability    Fare Chart    Map    Arr/Dep History    Trips    Gallery    ΣChains    X/O    Timeline    
Travel Time: 49h 18m    84 halts    Distance: 2269 km    Avg Speed: 46 km/hr
Type: Mail/Express
Zone: ECR/East Central
Departs @ 10:50 (Avg 3m late)
Platform# 5
SMTWTFS
Dhanbad Junction/DHN 
Arrives @ 12:08 +2 nights (Avg 17m late)
Platform# ???
SMTWTFS
Coimbatore Main Junction/CBE 

84 halts. 369 intermediate Stations between Dhanbad Junction and Coimbatore Main Junction

Show ALL intermediate Stations  Show Old Time-Table

#CodeStation NameX/OArrivesAvgDepartsAvgHaltPFDay#KmSpeedElevZoneAddress
1DHN»Dhanbad Junction (8)»  -10:50+3510.030235mECR2319801. Div. HQ ECR, Jharkhand
2KTHKatrasgarh (1)  11:18+411:20+42m1113.834198mECRKatrasgarh, Jharkhand
3CRPChandrapura Junction (2)X  11:56+211:58+22m--134.335227mECR06549-242555, Jharkhand
4BKSCBokaro Steel City (3)  12:25+412:35+310m2149.871245mSER06542-253861, Jharkhand
5PNWPundhag (3)  12:49+312:50+41m2166.563291mSERDist - Puruliya -723215, West Bengal
6JAAJhalida (3)X  13:12+813:13+91m--189.737297mSERJhalida, West Bengal
7MURIMuri Junction (3)  13:33+813:35+92m21102.148257mSER06522-222444, Jharkhand
8RNCRanchi Junction (6)X  14:50+715:05+815m31162.228632mSERDiv HQ SER, Jharkhand
9HTEHatia (3)  15:20+1115:25+135m--1169.276657mSER2788599, Jharkhand
10GBXGovindpur Road15:58+1516:00+152m--1210.971577mSERkhunti, Jharkhand
11BANOBano  16:45+1216:46+131m--1264.140452mSERDist. Gumla, Jharkhand
12NXNNuagaon  17:49+717:50+131m--1306.252218mSERKeonjhar, Odisha
13BNDMBondamunda (3)O  18:14+1818:15+181m--1326.926213mSERRourkela, Odisha
14ROURourkela Junction (5)X  18:30+1719:00+3630m21333.464198mSERRourkela, Odisha
15GPRaj Gangpur (3)  19:28+3919:29+401m11363.269237mSERRaj Ganpur, Odisha
16BMBBamra (3)X  19:59+4220:00+431m--1397.955259mSERBamra PH : 06642-229268, Odisha
17JSGJharsuguda Junction (5)  20:40+2220:50+2010m11434.463236mSERJharsuguda, Odisha
18RGLRengali  21:15+4621:17+462m--1460.869208mECoRState Highway 10, Odisha
19SBPDSambalpur Road  21:35+4721:37+472m--1481.511161mECoRSambalpur, Odisha
20SBPSambalpur Junction (3)X  21:45+4721:55+4910m--1483.064159mECoRSambalpur, Odisha
21ATSAttabira  22:18+5322:20+562m--1507.577164mECoRBargarh, Odisha
22BRGABargarh RoadX  22:34+5922:39+1:045m--1525.664185mECoRBargarh, Odisha
23BRPLBarpaliX  22:57+1:0422:59+1:092m--1544.867178mECoRBarpali, Odisha
24BLGRBalangir  23:50+1:1523:55+1:235m--1601.847210mECoRBolangir, Odisha
25BUDMBadmal  00:50+1:1100:52+1:132m--2645.223209mECoRDumerbahal Rd, Odisha
26TIGTitlagarh JunctionX  01:45+4401:55+4610m--2665.256212mECoRTitlagarh, Odisha
27KSNGKesinga (1)X  02:10+4802:12+492m12679.165183mECoRKesinga, Odisha
28RPRDRupra Road  02:27+5002:29+512m--2695.344233mECoRKalahandi, Odisha
29NRLRNorla Road  02:38+4902:40+502m--2702.060247mECoRKalahandi, Odisha
30AMBAmbodala  03:05+4903:07+502m--2727.039374mECoRState Highway 6, Odisha
31MNGDMunigudaX  03:45+3803:47+392m--2752.041335mECoRMuniguda, Odisha
32THVTherubali  04:40+2504:42+262m--2787.931270mECoRRayagada, Odisha
33SPRDSingapuram Road (2)X  05:00+2305:02+252m--2797.315248mECoRJaykaypur, Odisha
34RGDARayagada (3)  05:40+1005:55+1315m--2806.673229mECoRRayagada ph.no 06856-222407, Odisha
35PVPTParvatipuram TownX  06:32+1506:34+152m--2851.925121mECoRParvatipuram, Andhra Pradesh
36PVPParvatipuram (3)X  06:38+1506:40+152m--2853.572122mECoRParvatipuram, Andhra Pradesh
37VBLBobbili Junction (2)X  07:00+1507:03+153m22877.445137mECoRBobbili, Andhra Pradesh
38VZMVizianagaram Junction (5)  08:15+308:20+85m--2931.77563mECoRVizianagaram, Andhra Pradesh
39KTVKottavalasa Junction (5)X  08:48+2108:50+232m--2966.64058mECoRVizianagaram District, Andhra Pradesh
40SCMSimhachalam (2)  09:17+309:19+32m--2984.71127mECoRVisakhapatnam, Andhra Pradesh
41VSKPVisakhapatnam Junction (8)X10:05+710:25+920m32992.83311mECoRVishakhapatnam 530001, Andhra Pradesh
42DVDDuvvada (4)X  10:55+810:57+82m121009.27446mECoRVishakhapatnam District, Andhra Pradesh
43AKPAnakapalle (3)  11:10+1811:11+201m221025.17130mSCRAnakapalle ph.no . 08924-221698, Andhra Pradesh
44YLMElamanchili (2)X  11:31+2411:32+281m--21048.97123mSCRVisakhapatnam District, Andhra Pradesh
45NRPNarsipatnam Road (2)  11:47+3111:48+321m--21066.68418mSCRVisakhapatnam District, Andhra Pradesh
46TUNITuni (2)X  12:04+4012:05+411m121088.97124mSCRTuni ph.no. 08854-252172, Andhra Pradesh
47ANVAnnavaram (3)  12:19+4412:20+461m121105.67627mSCREast Godavari District, Andhra Pradesh
48GLPGollaproluX  12:35+4912:36+501m--21124.74919mSCRGollaprollu, Andhra Pradesh
49PAPPithapuram (2)  12:43+5112:44+531m--21130.47222mSCREast Godavari District, Andhra Pradesh
50SLOSamalkot Junction (3)  12:54+5612:55+561m321142.48418mSCRSamalkot, Andhra Pradesh
51APTAnaparti (3)  13:14+1:0013:15+1:001m--21168.93821mSCREast Godavari District, Andhra Pradesh
52DWPDwarapudi (3)X  13:21+1:0013:22+1:001m--21172.72420mSCREast Godavari District, Andhra Pradesh
53RJYRajahmundry (3)  14:11+3914:16+405m121192.63623mSCRRajahmundry ph.no. 0883-2420541, Andhra Pradesh
54KVRKovvur (3)  14:29+4414:30+451m321200.56125mSCRWest Godavari, Andhra Pradesh
55NDDNidadavolu Junction (3)  14:44+4914:45+501m221214.87120mSCRNidadavolu jtn ph.no. 08813-210325, Andhra Pradesh
56TDDTadepalligudem (3)X  15:02+5215:03+531m321234.88718mSCRTadepalligudem, Andhra Pradesh
57EEEluru (3)  15:36+5915:37+1:001m321282.53319mSCREluru Ph.no. 08812 226401., Andhra Pradesh
58BZAVijayawada Junction (10)X  17:25+3817:45+3920m--21341.96924mSCRVijayawada 520001, Andhra Pradesh
59TELTenali Junction (5)  18:12+5418:13+561m321373.26616mSCRTel: 08644-227834, Andhra Pradesh
60NDONidubrolu (3)  18:33+5918:34+591m--21395.2659mSCRNidubrolu, Andhra Pradesh
61BPPBapatla (3)X  18:53+1:0318:54+1:041m--21415.87510mSCRBapatla, Andhra Pradesh
62CLXChirala (4)X  19:06+1:0619:07+1:081m--21430.8768mSCRChirala, Andhra Pradesh
63CJMChinnaganjam (3)X  19:23+1:1019:24+1:111m--21451.1369mSCRChinna Ganjam, Andhra Pradesh
64OGLOngole (3)X  20:12+5620:13+581m321480.27712mSCROngole, Andhra Pradesh
65SKMSingarayakonda (3)X  20:35+1:0320:36+1:041m321508.49126mSCRSingarayakonda, Andhra Pradesh
66KVZKavali (4)X  21:01+1:0921:02+1:101m221546.27621mSCRKavali, Andhra Pradesh
67BTTRBitragunta (2)X  21:15+1:0121:16+1:011m221562.64515mSCRBitragunta, Andhra Pradesh
68NLRNellore (4)X  22:02+1622:03+151m321596.91721mSCRNellore, Andhra Pradesh
69GDRGudur Junction (3)  00:18+600:20+72m131635.46919mSCRGudur, Andhra Pradesh
70NYPNayadupeta (3)  00:44+1300:45+141m231663.16833mSRNayudupeta, Andhra Pradesh
71SPESullurupeta (3)  01:09+1201:10+131m231690.3479mSRSullurupeta, Andhra Pradesh
72MASChennai Central (12)↵¶02:55+903:25+1130m531772.8579mSRChennai 600003, Tamil Nadu
73TRLTiruvallur (6)  04:09+1104:10+131m--31814.56550mSRTiruvallur, Tamil Nadu
74AJJArakkonam Junction (8)  04:35+1204:40+115m--31841.46891mSRArakkonam, Tamil Nadu
75MCNMukundarayapuram (2)  05:19+1005:20+121m--31885.733198mSRSipcot Ranipet, Tamil Nadu
76KPDKatpadi Junction (5)  05:50+405:55+85m131902.277213mSRVellore 632007, Tamil Nadu
77GYMGudiyattam (3)  06:14+1106:15+121m331926.791269mSRVellore, Tamil Nadu
78VNVaniyambadiXO  06:44+1606:45+171m--31970.628357mSRVaniyambadi, Tamil Nadu
79JTJJolarpettai Junction (5)  07:18+407:20+82m--31986.144405mSRJolarpettai, Tamil Nadu
80TPTTirupattur Junction (2)X  07:30+1207:32+122m--31993.478392mSRTirupattur ph.no. 04179-220062, Tamil Nadu
81SLYSamalpatti  07:50+1507:52+152m--32016.790381mSRSamalpatti ph.no. 04341-245601, Tamil Nadu
82BQIBommidiX  08:23+1908:25+192m--32063.3740mSRBommidi ph.no. 04346-244441, Tamil Nadu
83SASalem Junction (6)X  09:00+2509:05+245m--32106.353283mSRSalem, Tamil Nadu
84EDErode Junction (4)X  10:15+1510:25+2510m232168.079175mSRErode ph.no: 0424-2256111, Tamil Nadu
85TUPTiruppur (2)  11:03+3011:05+302m132217.948305mSRTiruppur. Ph:0421-2200450, Tamil Nadu
86CBE•Coimbatore Main Junction (6)•  12:08+1712:10+192m--32268.542411mSRCoimbatore 641001, Tamil Nadu
87PGTPalakkad Junction (4)  13:30+1413:35+175m--32324.34184mSRPalghat Tel: 0491 2555231, Kerala
88SRRShoranur Junction (7)XO14:40+2815:25+3145m532368.63226mSRShoranur ph.no 0466-2222913, Kerala
89TCRThrissur (4)  16:27+1616:30+173m132401.5686mSRThrissur Tel: 0487 2423150, Kerala
90AWYAluva (3)XO  17:18+2517:20+252m132456.11812mSRPh: 0484-2624141, Kerala
91ERSErnakulam Junction (South) (6)  18:26+1118:30+184m132475.5413mSRErnakulam 682016, Kerala
92TUVRTuravur (2)  19:04+2919:05+301m132498.9435mSRThuravoor, Kerala
93SRTLCherthala (3)  19:19+2919:20+301m232508.91327mSRPh: 0478- 2812500, Kerala
94MAKMMararikkulam (1)X  19:25+3319:45+2820m132519.92312mSRMararikulam, Kerala
95ALLPAlappuzha (3)  20:20+10-332533.1-8mSRPh:0477-2253965, Kerala
Scroll to Top
Scroll to Bottom